createdAt,value
2023-01-31T00:02:20.747Z,21.40
2023-01-31T00:05:54.777Z,18.10
2023-01-31T00:09:37.693Z,26.60
2023-01-31T00:12:55.223Z,21.70
2023-01-31T00:16:16.167Z,22.80
2023-01-31T00:20:10.339Z,24.50
2023-01-31T00:23:55.061Z,17.60
2023-01-31T00:27:26.624Z,18.40
2023-01-31T00:31:13.445Z,24.70
2023-01-31T00:34:26.436Z,16.60
2023-01-31T00:38:03.452Z,22.60
2023-01-31T00:41:37.319Z,22.10
2023-01-31T00:45:21.088Z,16.00
2023-01-31T00:49:05.505Z,20.20
2023-01-31T00:52:44.807Z,19.70
2023-01-31T00:56:27.139Z,13.80
2023-01-31T00:59:51.238Z,20.90
2023-01-31T01:03:37.596Z,14.10
2023-01-31T01:06:47.673Z,12.60
2023-01-31T01:09:58.773Z,18.70
2023-01-31T01:14:02.635Z,13.50
2023-01-31T01:17:39.115Z,26.60
2023-01-31T01:21:15.306Z,28.50
2023-01-31T01:24:32.994Z,16.80
2023-01-31T01:27:31.684Z,15.60
2023-01-31T01:30:39.663Z,14.00
2023-01-31T01:34:23.066Z,15.70
2023-01-31T01:37:47.731Z,11.90
2023-01-31T01:41:37.579Z,13.20
2023-01-31T01:45:21.167Z,17.90
2023-01-31T01:48:57.706Z,20.30
2023-01-31T01:52:19.697Z,21.50
2023-01-31T01:55:30.785Z,15.80
2023-01-31T01:59:17.234Z,21.40
2023-01-31T02:02:13.926Z,22.30
2023-01-31T02:04:57.216Z,17.80
2023-01-31T02:07:41.825Z,16.20
2023-01-31T02:11:00.286Z,13.20
2023-01-31T02:13:45.834Z,15.90
2023-01-31T02:16:30.641Z,16.50
2023-01-31T02:19:48.939Z,18.50
2023-01-31T02:22:56.919Z,16.50
2023-01-31T02:26:01.396Z,24.20
2023-01-31T02:29:08.895Z,24.10
2023-01-31T02:32:11.691Z,14.70
2023-01-31T02:35:19.060Z,10.80
2023-01-31T02:38:39.825Z,12.00
2023-01-31T02:41:51.373Z,18.50
2023-01-31T02:45:01.124Z,17.70
2023-01-31T02:47:59.892Z,20.70
2023-01-31T02:51:08.395Z,16.50
2023-01-31T02:54:09.940Z,16.30
2023-01-31T02:56:53.979Z,18.10
2023-01-31T02:59:37.250Z,25.40
2023-01-31T03:02:21.620Z,18.10
2023-01-31T03:05:05.354Z,25.60
2023-01-31T03:07:58.605Z,15.20
2023-01-31T03:10:44.728Z,17.00
2023-01-31T03:13:49.249Z,17.80
2023-01-31T03:17:27.297Z,20.00
2023-01-31T03:20:27.812Z,14.30
2023-01-31T03:23:23.847Z,15.20
2023-01-31T03:26:07.774Z,16.40
2023-01-31T03:28:57.151Z,14.90
2023-01-31T03:31:47.269Z,16.20
2023-01-31T03:34:31.465Z,14.30
2023-01-31T03:37:25.020Z,20.80
2023-01-31T03:40:17.613Z,17.80
2023-01-31T03:43:17.388Z,16.20
2023-01-31T03:46:26.426Z,19.40
2023-01-31T03:49:14.008Z,17.10
2023-01-31T03:52:07.747Z,17.70
2023-01-31T03:55:00.393Z,18.20
2023-01-31T03:57:46.699Z,18.30
2023-01-31T04:00:30.247Z,18.50
2023-01-31T04:03:32.324Z,15.40
2023-01-31T04:06:17.143Z,19.40
2023-01-31T04:09:00.521Z,18.20
2023-01-31T04:11:48.797Z,13.90
2023-01-31T04:14:32.124Z,22.30
2023-01-31T04:17:15.242Z,23.00
2023-01-31T04:19:58.193Z,11.00
2023-01-31T04:25:23.893Z,14.20
2023-01-31T04:28:07.791Z,16.10
2023-01-31T04:30:57.633Z,18.10
2023-01-31T04:33:40.474Z,9.50
2023-01-31T04:39:06.563Z,16.50
2023-01-31T04:41:50.602Z,17.10
2023-01-31T04:44:33.497Z,18.20
2023-01-31T04:47:16.390Z,17.60
2023-01-31T04:49:59.218Z,15.70
2023-01-31T04:55:25.985Z,16.50
2023-01-31T04:58:08.901Z,17.50
2023-01-31T05:00:54.576Z,17.40
2023-01-31T05:03:37.798Z,16.60
2023-01-31T05:06:20.697Z,16.50
2023-01-31T05:09:03.828Z,16.60
2023-01-31T05:11:46.739Z,16.00
2023-01-31T05:17:12.357Z,24.10
2023-01-31T05:19:58.858Z,13.40
2023-01-31T05:22:41.676Z,11.70
2023-01-31T05:28:08.334Z,14.00
2023-01-31T05:30:52.402Z,19.50
2023-01-31T05:33:36.231Z,18.60
2023-01-31T05:36:19.136Z,17.70
2023-01-31T05:41:45.076Z,22.20
2023-01-31T05:44:28.159Z,15.20
2023-01-31T05:47:10.984Z,13.20
2023-01-31T05:52:37.457Z,8.40
2023-01-31T05:55:21.478Z,17.00
2023-01-31T05:58:04.923Z,12.70
2023-01-31T06:00:47.696Z,15.00
2023-01-31T06:06:14.055Z,15.60
2023-01-31T06:08:56.895Z,14.70
2023-01-31T06:11:39.958Z,18.40
2023-01-31T06:14:23.087Z,17.90
2023-01-31T06:17:06.046Z,15.70
2023-01-31T06:19:48.980Z,12.90
2023-01-31T06:22:31.897Z,8.80
2023-01-31T06:25:15.817Z,17.70
2023-01-31T06:27:59.245Z,12.50
2023-01-31T06:30:42.390Z,11.40
2023-01-31T06:33:42.286Z,16.70
2023-01-31T06:36:27.592Z,13.60
2023-01-31T06:39:12.316Z,15.70
2023-01-31T06:41:55.611Z,14.20
2023-01-31T06:44:38.608Z,13.00
2023-01-31T06:47:21.627Z,15.50
2023-01-31T06:50:05.253Z,12.10
2023-01-31T06:52:48.309Z,9.00
2023-01-31T06:55:31.493Z,13.10
2023-01-31T06:58:14.546Z,15.70
2023-01-31T07:00:58.824Z,13.70
2023-01-31T07:03:42.099Z,11.80
2023-01-31T07:06:25.234Z,19.60
2023-01-31T07:09:08.099Z,17.60
2023-01-31T07:14:34.012Z,21.00
2023-01-31T07:17:17.999Z,13.90
2023-01-31T07:20:00.853Z,16.90
2023-01-31T07:25:27.593Z,19.40
2023-01-31T07:28:12.177Z,19.30
2023-01-31T07:30:55.036Z,22.00
2023-01-31T07:33:39.131Z,13.90
2023-01-31T07:36:26.593Z,21.90
2023-01-31T07:39:09.547Z,20.30
2023-01-31T07:41:52.406Z,28.60
2023-01-31T07:44:40.916Z,20.30
2023-01-31T07:47:23.777Z,14.90
2023-01-31T07:52:51.138Z,19.80
2023-01-31T07:55:34.014Z,15.50
2023-01-31T08:04:18.327Z,17.00
2023-01-31T08:07:05.682Z,21.60
2023-01-31T08:09:50.363Z,17.50
2023-01-31T08:12:33.469Z,19.70
2023-01-31T08:15:16.575Z,18.20
2023-01-31T08:17:59.627Z,19.70
2023-01-31T08:20:42.501Z,18.20
2023-01-31T08:26:16.066Z,17.80
2023-01-31T08:29:00.167Z,20.80
2023-01-31T08:31:43.806Z,20.30
2023-01-31T08:34:28.049Z,16.50
2023-01-31T08:37:11.002Z,17.70
2023-01-31T08:39:54.070Z,17.90
2023-01-31T08:42:36.979Z,19.50
2023-01-31T08:45:20.096Z,25.00
2023-01-31T08:48:03.736Z,17.50
2023-01-31T08:50:46.591Z,14.50
2023-01-31T08:53:29.710Z,15.70
2023-01-31T08:56:14.517Z,12.50
2023-01-31T08:58:57.527Z,19.10
2023-01-31T09:01:42.558Z,21.60
2023-01-31T09:04:25.589Z,20.80
2023-01-31T09:07:08.617Z,16.50
2023-01-31T09:12:35.604Z,13.20
2023-01-31T09:15:19.098Z,15.30
2023-01-31T09:18:02.281Z,14.20
2023-01-31T09:20:45.284Z,14.30
2023-01-31T09:26:13.694Z,15.50
2023-01-31T09:28:58.911Z,17.60
2023-01-31T09:31:41.864Z,15.80
2023-01-31T09:34:24.846Z,9.00
2023-01-31T09:37:07.859Z,17.90
2023-01-31T09:39:50.916Z,19.10
2023-01-31T09:42:44.062Z,11.10
2023-01-31T09:45:33.243Z,14.50
2023-01-31T09:48:21.248Z,14.90
2023-01-31T09:51:05.832Z,13.70
2023-01-31T09:53:48.911Z,17.10
2023-01-31T09:56:50.800Z,17.80
2023-01-31T10:00:00.283Z,21.50
2023-01-31T10:03:11.310Z,19.90
2023-01-31T10:06:19.032Z,17.20
2023-01-31T10:09:10.727Z,14.00
2023-01-31T10:12:22.764Z,15.20
2023-01-31T10:15:13.692Z,15.60
2023-01-31T10:18:02.449Z,14.20
2023-01-31T10:21:27.239Z,25.60
2023-01-31T10:24:40.757Z,14.90
2023-01-31T10:27:35.877Z,14.50
2023-01-31T10:30:24.944Z,21.00
2023-01-31T10:33:44.200Z,22.60
2023-01-31T10:36:49.531Z,14.20
2023-01-31T10:40:02.783Z,14.80
2023-01-31T10:45:33.918Z,19.20
2023-01-31T10:48:26.256Z,15.60
2023-01-31T10:51:31.656Z,14.40
2023-01-31T10:54:42.024Z,12.80
2023-01-31T10:57:25.190Z,15.50
2023-01-31T11:00:37.516Z,12.20
2023-01-31T11:03:21.111Z,11.00
2023-01-31T11:06:06.606Z,16.40
2023-01-31T11:08:57.129Z,21.80
2023-01-31T11:11:58.893Z,17.50
2023-01-31T11:14:42.046Z,13.10
2023-01-31T11:17:25.061Z,18.50
2023-01-31T11:20:22.145Z,17.90
2023-01-31T11:23:07.385Z,14.40
2023-01-31T11:25:52.976Z,16.30
2023-01-31T11:28:40.749Z,20.60
2023-01-31T11:31:32.206Z,16.90
2023-01-31T11:34:24.291Z,13.60
2023-01-31T11:37:15.620Z,20.50
2023-01-31T11:40:01.112Z,15.60
2023-01-31T11:42:57.768Z,15.40
2023-01-31T11:45:46.063Z,11.80
2023-01-31T11:48:42.391Z,20.00
2023-01-31T11:51:31.936Z,22.90
2023-01-31T11:54:20.310Z,19.00
2023-01-31T11:57:14.681Z,11.60
2023-01-31T12:00:01.052Z,19.60
2023-01-31T12:02:45.157Z,17.00
2023-01-31T12:05:41.224Z,23.50
2023-01-31T12:08:35.907Z,17.90
2023-01-31T12:11:22.082Z,20.10
2023-01-31T12:14:07.141Z,24.40
2023-01-31T12:16:51.386Z,15.70
2023-01-31T12:19:46.665Z,11.90
2023-01-31T12:22:52.633Z,22.20
2023-01-31T12:25:53.820Z,21.50
2023-01-31T12:29:19.547Z,26.60
2023-01-31T12:32:36.046Z,19.60
2023-01-31T12:35:30.024Z,17.30
2023-01-31T12:38:47.394Z,18.10
2023-01-31T12:41:39.790Z,14.40
2023-01-31T12:44:52.076Z,20.40
2023-01-31T12:47:52.069Z,24.00
2023-01-31T12:50:37.743Z,13.80
2023-01-31T12:53:38.614Z,17.80
2023-01-31T12:56:55.331Z,22.10
2023-01-31T12:59:55.419Z,30.30
2023-01-31T13:03:00.232Z,18.60
2023-01-31T13:05:56.228Z,26.90
2023-01-31T13:08:41.239Z,24.80
2023-01-31T13:11:53.887Z,21.60
2023-01-31T13:14:42.632Z,18.10
2023-01-31T13:17:28.923Z,18.80
2023-01-31T13:20:11.836Z,24.80
2023-01-31T13:23:00.235Z,24.70
2023-01-31T13:25:59.257Z,21.20
2023-01-31T13:28:49.173Z,22.90
2023-01-31T13:31:40.263Z,20.40
2023-01-31T13:34:30.927Z,15.70
2023-01-31T13:37:22.254Z,11.00
2023-01-31T13:40:19.788Z,20.20
2023-01-31T13:43:13.041Z,15.70
2023-01-31T13:46:06.466Z,22.60
2023-01-31T13:48:55.648Z,17.20
2023-01-31T13:51:46.539Z,18.60
2023-01-31T13:54:34.271Z,18.70
2023-01-31T13:57:29.054Z,16.10
2023-01-31T14:00:30.881Z,13.10
2023-01-31T14:03:17.399Z,18.10
2023-01-31T14:06:02.212Z,13.60
2023-01-31T14:08:50.079Z,11.70
2023-01-31T14:11:34.249Z,11.80
2023-01-31T14:14:41.971Z,10.90
2023-01-31T14:17:27.826Z,10.70
2023-01-31T14:20:28.125Z,16.30
2023-01-31T14:23:43.665Z,11.80
2023-01-31T14:26:44.700Z,14.20
2023-01-31T14:29:28.120Z,12.10
2023-01-31T14:32:30.388Z,10.10
2023-01-31T14:35:13.248Z,11.40
2023-01-31T14:41:01.217Z,13.60
2023-01-31T14:44:06.140Z,14.30
2023-01-31T14:47:16.088Z,9.80
2023-01-31T14:50:39.274Z,14.70
2023-01-31T14:53:22.071Z,14.40
2023-01-31T14:58:54.183Z,13.10
2023-01-31T15:01:38.339Z,13.20
2023-01-31T15:04:24.646Z,18.10
2023-01-31T15:07:16.954Z,17.70
2023-01-31T15:09:59.880Z,13.00
2023-01-31T15:13:00.114Z,20.10
2023-01-31T15:15:49.417Z,14.90
2023-01-31T15:18:33.682Z,18.30
2023-01-31T15:21:30.303Z,17.70
2023-01-31T15:24:41.861Z,19.00
2023-01-31T15:27:29.394Z,18.90
2023-01-31T15:30:22.781Z,17.30
2023-01-31T15:33:15.182Z,22.30
2023-01-31T15:36:09.517Z,22.00
2023-01-31T15:38:54.650Z,22.10
2023-01-31T15:41:41.679Z,26.10
2023-01-31T15:44:28.414Z,31.60
2023-01-31T15:47:21.776Z,20.60
2023-01-31T15:50:16.252Z,22.80
2023-01-31T15:53:13.666Z,23.70
2023-01-31T15:55:59.700Z,20.60
2023-01-31T15:58:48.507Z,16.80
2023-01-31T16:01:31.558Z,18.80
2023-01-31T16:04:14.568Z,21.60
2023-01-31T16:06:58.910Z,16.30
2023-01-31T16:09:42.137Z,18.90
2023-01-31T16:12:26.227Z,19.70
2023-01-31T16:15:19.510Z,24.60
2023-01-31T16:18:03.671Z,26.00
2023-01-31T16:20:51.864Z,26.40
2023-01-31T16:23:37.692Z,21.30
2023-01-31T16:26:28.757Z,25.80
2023-01-31T16:29:18.163Z,26.10
2023-01-31T16:32:01.068Z,27.60
2023-01-31T16:34:44.082Z,21.30
2023-01-31T16:37:33.937Z,24.70
2023-01-31T16:40:27.726Z,27.10
2023-01-31T16:43:28.514Z,27.80
2023-01-31T16:46:35.941Z,28.00
2023-01-31T16:49:31.834Z,28.10
2023-01-31T16:52:24.544Z,33.90
2023-01-31T16:55:14.524Z,28.30
2023-01-31T16:57:57.535Z,28.40
2023-01-31T17:00:42.010Z,33.40
2023-01-31T17:03:25.871Z,30.10
2023-01-31T17:06:09.372Z,28.00
2023-01-31T17:08:52.283Z,24.80
2023-01-31T17:11:43.611Z,28.40
2023-01-31T17:14:26.808Z,26.20
2023-01-31T17:17:16.266Z,27.50
2023-01-31T17:20:05.140Z,29.00
2023-01-31T17:22:56.801Z,30.90
2023-01-31T17:25:44.582Z,33.10
2023-01-31T17:28:27.463Z,24.50
2023-01-31T17:33:58.462Z,26.10
2023-01-31T17:36:42.865Z,24.20
2023-01-31T17:39:25.696Z,26.90
2023-01-31T17:44:58.996Z,22.70
2023-01-31T17:47:42.141Z,26.60
2023-01-31T17:50:27.915Z,22.70
2023-01-31T17:53:14.305Z,25.10
2023-01-31T17:55:57.701Z,20.90
2023-01-31T17:58:40.828Z,20.40
2023-01-31T18:01:23.761Z,23.90
2023-01-31T18:04:07.576Z,24.30
2023-01-31T18:06:50.560Z,23.50
2023-01-31T18:09:33.589Z,22.20
2023-01-31T18:12:18.558Z,23.90
2023-01-31T18:15:02.467Z,21.50
2023-01-31T18:17:45.416Z,21.70
2023-01-31T18:20:28.270Z,19.40
2023-01-31T18:23:11.477Z,23.00
2023-01-31T18:25:54.397Z,19.40
2023-01-31T18:28:37.907Z,19.30
2023-01-31T18:31:23.301Z,19.00
2023-01-31T18:34:06.623Z,22.30
2023-01-31T18:36:50.298Z,21.40
2023-01-31T18:39:34.018Z,21.60
2023-01-31T18:42:17.705Z,20.80
2023-01-31T18:45:02.482Z,22.30
2023-01-31T18:47:45.733Z,23.80
2023-01-31T18:50:30.796Z,26.10
2023-01-31T18:53:14.392Z,21.90
2023-01-31T18:56:06.133Z,22.30
2023-01-31T18:58:51.219Z,24.60
2023-01-31T19:01:34.492Z,19.60
2023-01-31T19:04:17.455Z,20.10
2023-01-31T19:07:00.555Z,21.00
2023-01-31T19:09:43.607Z,23.00
2023-01-31T19:12:26.688Z,21.70
2023-01-31T19:15:12.351Z,23.30
2023-01-31T19:17:55.547Z,21.70
2023-01-31T19:20:38.795Z,22.10
2023-01-31T19:23:22.055Z,22.00
2023-01-31T19:26:04.972Z,19.60
2023-01-31T19:28:48.723Z,21.50
2023-01-31T19:31:33.880Z,21.50
2023-01-31T19:34:19.543Z,20.80
2023-01-31T19:37:02.481Z,20.30
2023-01-31T19:39:47.233Z,20.60
2023-01-31T19:42:30.784Z,20.80
2023-01-31T19:45:22.587Z,22.30
2023-01-31T19:48:06.430Z,26.30
2023-01-31T19:50:50.704Z,19.40
2023-01-31T19:53:34.329Z,17.40
2023-01-31T19:56:18.176Z,20.50
2023-01-31T19:59:01.688Z,20.00
2023-01-31T20:01:45.415Z,22.90
2023-01-31T20:04:32.368Z,18.70
2023-01-31T20:07:16.385Z,19.60
2023-01-31T20:10:00.661Z,20.00
2023-01-31T20:12:45.541Z,15.80
2023-01-31T20:15:30.519Z,16.10
2023-01-31T20:18:14.362Z,15.60
2023-01-31T20:20:58.573Z,14.90
2023-01-31T20:23:43.110Z,16.60
2023-01-31T20:26:29.533Z,15.50
2023-01-31T20:29:15.022Z,18.00
2023-01-31T20:32:01.356Z,15.90
2023-01-31T20:34:45.448Z,19.70
2023-01-31T20:37:29.531Z,19.70
2023-01-31T20:40:13.246Z,15.10
2023-01-31T20:42:56.859Z,13.50
2023-01-31T20:45:40.778Z,15.20
2023-01-31T20:48:26.271Z,18.00
2023-01-31T20:51:10.631Z,13.60
2023-01-31T20:53:54.901Z,13.10
2023-01-31T20:56:39.203Z,14.30
2023-01-31T20:59:24.298Z,15.10
2023-01-31T21:02:09.486Z,15.00
2023-01-31T21:04:52.638Z,15.40
2023-01-31T21:07:36.499Z,14.00
2023-01-31T21:10:20.247Z,12.50
2023-01-31T21:13:05.051Z,13.10
2023-01-31T21:15:53.504Z,11.10
2023-01-31T21:18:39.319Z,13.00
2023-01-31T21:21:23.547Z,10.60
2023-01-31T21:24:08.443Z,11.50
2023-01-31T21:26:51.789Z,6.10
2023-01-31T21:29:37.620Z,4.80
2023-01-31T21:32:21.270Z,5.50
2023-01-31T21:35:04.653Z,8.30
2023-01-31T21:37:48.616Z,4.80
2023-01-31T21:40:31.847Z,6.80
2023-01-31T21:43:16.255Z,4.50
2023-01-31T21:45:59.181Z,9.70
2023-01-31T21:48:42.222Z,6.50
2023-01-31T21:51:26.222Z,5.80
2023-01-31T21:54:09.301Z,5.10
2023-01-31T21:56:52.196Z,6.20
2023-01-31T21:59:36.479Z,6.60
2023-01-31T22:02:19.444Z,5.00
2023-01-31T22:05:03.276Z,6.10
2023-01-31T22:07:49.300Z,11.30
2023-01-31T22:10:32.281Z,6.10
2023-01-31T22:13:15.162Z,7.10
2023-01-31T22:18:44.017Z,5.30
2023-01-31T22:21:29.504Z,8.90
2023-01-31T22:24:12.497Z,9.30
2023-01-31T22:26:55.424Z,8.20
2023-01-31T22:32:21.023Z,4.30
2023-01-31T22:37:46.857Z,4.00
2023-01-31T22:43:15.485Z,12.00
2023-01-31T22:46:00.375Z,9.10
2023-01-31T22:48:43.742Z,10.80
2023-01-31T22:51:28.215Z,9.00
2023-01-31T22:54:11.102Z,10.50
2023-01-31T22:56:54.123Z,9.80
2023-01-31T22:59:37.071Z,14.80
2023-01-31T23:02:20.988Z,8.20
2023-01-31T23:05:03.991Z,11.70
2023-01-31T23:07:46.914Z,15.40
2023-01-31T23:10:29.927Z,10.50
2023-01-31T23:13:12.757Z,7.30
2023-01-31T23:15:55.717Z,11.80
2023-01-31T23:18:38.764Z,11.20
2023-01-31T23:21:21.709Z,11.50
2023-01-31T23:26:47.866Z,9.20
2023-01-31T23:29:30.940Z,19.80
2023-01-31T23:32:13.864Z,13.90
2023-01-31T23:34:56.814Z,17.20
2023-01-31T23:37:39.938Z,17.40
2023-01-31T23:40:23.201Z,16.00
2023-01-31T23:43:06.230Z,12.30
2023-01-31T23:48:33.704Z,18.10
2023-01-31T23:51:16.629Z,17.10
2023-01-31T23:53:59.832Z,15.20
2023-01-31T23:56:42.843Z,19.40
2023-01-31T23:59:25.691Z,17.20
